sensor_id;sensor_type;location;lat;lon;timestamp;temperature;humidity
5415;DHT22;2730;51.512;7.504;2023-04-03T00:01:40;1.00;99.90
5415;DHT22;2730;51.512;7.504;2023-04-03T00:04:07;1.00;99.90
5415;DHT22;2730;51.512;7.504;2023-04-03T00:06:34;1.00;99.90
5415;DHT22;2730;51.512;7.504;2023-04-03T00:09:02;0.90;99.90
5415;DHT22;2730;51.512;7.504;2023-04-03T00:11:29;0.90;99.90
5415;DHT22;2730;51.512;7.504;2023-04-03T00:13:56;0.90;99.90
5415;DHT22;2730;51.512;7.504;2023-04-03T00:16:22;0.90;99.90
5415;DHT22;2730;51.512;7.504;2023-04-03T00:18:49;0.80;99.90
5415;DHT22;2730;51.512;7.504;2023-04-03T00:21:16;0.80;99.90
5415;DHT22;2730;51.512;7.504;2023-04-03T00:23:43;0.80;99.90
5415;DHT22;2730;51.512;7.504;2023-04-03T00:26:11;0.70;99.90
5415;DHT22;2730;51.512;7.504;2023-04-03T00:28:38;0.80;99.90
5415;DHT22;2730;51.512;7.504;2023-04-03T00:31:04;0.80;99.90
5415;DHT22;2730;51.512;7.504;2023-04-03T00:33:31;0.90;99.90
5415;DHT22;2730;51.512;7.504;2023-04-03T00:35:58;0.90;99.90
5415;DHT22;2730;51.512;7.504;2023-04-03T00:38:25;1.00;99.90
5415;DHT22;2730;51.512;7.504;2023-04-03T00:40:52;1.00;99.90
5415;DHT22;2730;51.512;7.504;2023-04-03T00:43:21;1.00;99.90
5415;DHT22;2730;51.512;7.504;2023-04-03T00:45:49;1.00;99.90
5415;DHT22;2730;51.512;7.504;2023-04-03T00:48:19;1.10;99.90
5415;DHT22;2730;51.512;7.504;2023-04-03T00:50:47;1.20;99.90
5415;DHT22;2730;51.512;7.504;2023-04-03T00:53:18;1.40;99.90
5415;DHT22;2730;51.512;7.504;2023-04-03T00:55:47;1.70;99.90
5415;DHT22;2730;51.512;7.504;2023-04-03T00:58:15;1.70;99.90
5415;DHT22;2730;51.512;7.504;2023-04-03T01:00:49;1.70;99.90
5415;DHT22;2730;51.512;7.504;2023-04-03T01:03:19;1.80;99.90
5415;DHT22;2730;51.512;7.504;2023-04-03T01:05:45;1.70;99.90
5415;DHT22;2730;51.512;7.504;2023-04-03T01:08:12;1.50;99.90
5415;DHT22;2730;51.512;7.504;2023-04-03T01:10:39;1.50;99.90
5415;DHT22;2730;51.512;7.504;2023-04-03T01:13:19;1.40;99.90
5415;DHT22;2730;51.512;7.504;2023-04-03T01:15:47;1.40;99.90
5415;DHT22;2730;51.512;7.504;2023-04-03T01:18:14;1.40;99.90
5415;DHT22;2730;51.512;7.504;2023-04-03T01:24:07;1.40;99.90
5415;DHT22;2730;51.512;7.504;2023-04-03T01:26:38;1.40;99.90
5415;DHT22;2730;51.512;7.504;2023-04-03T01:29:05;1.30;99.90
5415;DHT22;2730;51.512;7.504;2023-04-03T01:31:50;1.20;99.90
5415;DHT22;2730;51.512;7.504;2023-04-03T01:34:17;1.30;99.90
5415;DHT22;2730;51.512;7.504;2023-04-03T01:36:44;1.30;99.90
5415;DHT22;2730;51.512;7.504;2023-04-03T01:39:11;1.20;99.90
5415;DHT22;2730;51.512;7.504;2023-04-03T01:41:38;1.20;99.90
5415;DHT22;2730;51.512;7.504;2023-04-03T01:44:05;1.30;99.90
5415;DHT22;2730;51.512;7.504;2023-04-03T01:46:32;1.30;99.90
5415;DHT22;2730;51.512;7.504;2023-04-03T01:49:00;1.40;99.90
5415;DHT22;2730;51.512;7.504;2023-04-03T01:51:27;1.40;99.90
5415;DHT22;2730;51.512;7.504;2023-04-03T01:53:54;1.40;99.90
5415;DHT22;2730;51.512;7.504;2023-04-03T01:56:21;1.40;99.90
5415;DHT22;2730;51.512;7.504;2023-04-03T01:58:48;1.50;99.90
5415;DHT22;2730;51.512;7.504;2023-04-03T02:01:15;1.40;99.90
5415;DHT22;2730;51.512;7.504;2023-04-03T02:03:41;1.30;99.90
5415;DHT22;2730;51.512;7.504;2023-04-03T02:06:10;1.30;99.90
5415;DHT22;2730;51.512;7.504;2023-04-03T02:08:36;1.20;99.90
5415;DHT22;2730;51.512;7.504;2023-04-03T02:11:03;1.00;99.90
5415;DHT22;2730;51.512;7.504;2023-04-03T02:13:30;1.00;99.90
5415;DHT22;2730;51.512;7.504;2023-04-03T02:15:57;1.00;99.90
5415;DHT22;2730;51.512;7.504;2023-04-03T02:18:24;1.10;99.90
5415;DHT22;2730;51.512;7.504;2023-04-03T02:20:51;1.10;99.90
5415;DHT22;2730;51.512;7.504;2023-04-03T02:23:19;1.20;99.90
5415;DHT22;2730;51.512;7.504;2023-04-03T02:25:46;1.30;99.90
5415;DHT22;2730;51.512;7.504;2023-04-03T02:28:14;1.30;99.90
5415;DHT22;2730;51.512;7.504;2023-04-03T02:30:41;1.20;99.90
5415;DHT22;2730;51.512;7.504;2023-04-03T02:33:08;1.20;99.90
5415;DHT22;2730;51.512;7.504;2023-04-03T02:35:35;1.20;99.90
5415;DHT22;2730;51.512;7.504;2023-04-03T02:38:02;1.10;99.90
5415;DHT22;2730;51.512;7.504;2023-04-03T02:40:30;1.10;99.90
5415;DHT22;2730;51.512;7.504;2023-04-03T02:42:57;1.10;99.90
5415;DHT22;2730;51.512;7.504;2023-04-03T02:45:24;1.10;99.90
5415;DHT22;2730;51.512;7.504;2023-04-03T02:47:50;1.10;99.90
5415;DHT22;2730;51.512;7.504;2023-04-03T02:50:17;1.10;99.90
5415;DHT22;2730;51.512;7.504;2023-04-03T02:52:44;1.10;99.90
5415;DHT22;2730;51.512;7.504;2023-04-03T02:55:13;1.10;99.90
5415;DHT22;2730;51.512;7.504;2023-04-03T02:57:42;1.10;99.90
5415;DHT22;2730;51.512;7.504;2023-04-03T03:00:09;1.10;99.90
5415;DHT22;2730;51.512;7.504;2023-04-03T03:02:36;1.00;99.90
5415;DHT22;2730;51.512;7.504;2023-04-03T03:05:04;1.00;99.90
5415;DHT22;2730;51.512;7.504;2023-04-03T03:07:31;0.80;99.90
5415;DHT22;2730;51.512;7.504;2023-04-03T03:09:57;0.80;99.90
5415;DHT22;2730;51.512;7.504;2023-04-03T03:12:24;0.70;99.90
5415;DHT22;2730;51.512;7.504;2023-04-03T03:14:52;0.60;99.90
5415;DHT22;2730;51.512;7.504;2023-04-03T03:17:19;0.70;99.90
5415;DHT22;2730;51.512;7.504;2023-04-03T03:19:46;0.60;99.90
5415;DHT22;2730;51.512;7.504;2023-04-03T03:22:13;0.50;99.90
5415;DHT22;2730;51.512;7.504;2023-04-03T03:24:39;0.40;99.90
5415;DHT22;2730;51.512;7.504;2023-04-03T03:27:06;0.40;99.90
5415;DHT22;2730;51.512;7.504;2023-04-03T03:29:33;0.40;99.90
5415;DHT22;2730;51.512;7.504;2023-04-03T03:32:01;0.40;99.90
5415;DHT22;2730;51.512;7.504;2023-04-03T03:34:28;0.30;99.90
5415;DHT22;2730;51.512;7.504;2023-04-03T03:36:55;0.30;99.90
5415;DHT22;2730;51.512;7.504;2023-04-03T03:39:22;0.30;99.90
5415;DHT22;2730;51.512;7.504;2023-04-03T03:41:48;0.30;99.90
5415;DHT22;2730;51.512;7.504;2023-04-03T03:44:16;0.30;99.90
5415;DHT22;2730;51.512;7.504;2023-04-03T03:46:42;0.30;99.90
5415;DHT22;2730;51.512;7.504;2023-04-03T03:49:11;0.30;99.90
5415;DHT22;2730;51.512;7.504;2023-04-03T03:51:38;0.40;99.90
5415;DHT22;2730;51.512;7.504;2023-04-03T03:54:05;0.50;99.90
5415;DHT22;2730;51.512;7.504;2023-04-03T03:56:32;0.50;99.90
5415;DHT22;2730;51.512;7.504;2023-04-03T03:58:59;0.50;99.90
5415;DHT22;2730;51.512;7.504;2023-04-03T04:01:26;0.40;99.90
5415;DHT22;2730;51.512;7.504;2023-04-03T04:03:52;0.40;99.90
5415;DHT22;2730;51.512;7.504;2023-04-03T04:06:21;0.30;99.90
5415;DHT22;2730;51.512;7.504;2023-04-03T04:08:48;0.20;99.90
5415;DHT22;2730;51.512;7.504;2023-04-03T04:11:15;0.10;99.90
5415;DHT22;2730;51.512;7.504;2023-04-03T04:13:42;0.10;99.90
5415;DHT22;2730;51.512;7.504;2023-04-03T04:16:09;0.00;99.90
5415;DHT22;2730;51.512;7.504;2023-04-03T04:18:36;0.00;99.90
5415;DHT22;2730;51.512;7.504;2023-04-03T04:21:02;0.00;99.90
5415;DHT22;2730;51.512;7.504;2023-04-03T04:23:31;0.00;99.90
5415;DHT22;2730;51.512;7.504;2023-04-03T04:25:58;0.00;99.90
5415;DHT22;2730;51.512;7.504;2023-04-03T04:28:24;-0.10;99.90
5415;DHT22;2730;51.512;7.504;2023-04-03T04:30:51;-0.10;99.90
5415;DHT22;2730;51.512;7.504;2023-04-03T04:33:18;-0.10;99.90
5415;DHT22;2730;51.512;7.504;2023-04-03T04:35:47;-0.20;99.90
5415;DHT22;2730;51.512;7.504;2023-04-03T04:38:13;-0.20;99.90
5415;DHT22;2730;51.512;7.504;2023-04-03T04:40:41;-0.30;99.90
5415;DHT22;2730;51.512;7.504;2023-04-03T04:43:08;-0.20;99.90
5415;DHT22;2730;51.512;7.504;2023-04-03T04:45:36;-0.30;99.90
5415;DHT22;2730;51.512;7.504;2023-04-03T04:48:03;-0.30;99.90
5415;DHT22;2730;51.512;7.504;2023-04-03T04:50:30;-0.20;99.90
5415;DHT22;2730;51.512;7.504;2023-04-03T04:52:57;-0.20;99.90
5415;DHT22;2730;51.512;7.504;2023-04-03T04:55:24;-0.20;99.90
5415;DHT22;2730;51.512;7.504;2023-04-03T04:57:52;-0.20;99.90
5415;DHT22;2730;51.512;7.504;2023-04-03T05:00:19;-0.30;99.90
5415;DHT22;2730;51.512;7.504;2023-04-03T05:02:46;-0.30;99.90
5415;DHT22;2730;51.512;7.504;2023-04-03T05:05:13;-0.40;99.90
5415;DHT22;2730;51.512;7.504;2023-04-03T05:07:40;-0.40;99.90
5415;DHT22;2730;51.512;7.504;2023-04-03T05:10:08;-0.40;99.90
5415;DHT22;2730;51.512;7.504;2023-04-03T05:12:35;-0.50;99.90
5415;DHT22;2730;51.512;7.504;2023-04-03T05:15:04;-0.50;99.90
5415;DHT22;2730;51.512;7.504;2023-04-03T05:17:31;-0.50;99.90
5415;DHT22;2730;51.512;7.504;2023-04-03T05:19:58;-0.50;99.90
5415;DHT22;2730;51.512;7.504;2023-04-03T05:22:25;-0.60;99.90
5415;DHT22;2730;51.512;7.504;2023-04-03T05:24:51;-0.50;99.90
5415;DHT22;2730;51.512;7.504;2023-04-03T05:27:18;-0.60;99.90
5415;DHT22;2730;51.512;7.504;2023-04-03T05:29:45;-0.50;99.90
5415;DHT22;2730;51.512;7.504;2023-04-03T05:32:13;-0.50;99.90
5415;DHT22;2730;51.512;7.504;2023-04-03T05:34:40;-0.40;99.90
5415;DHT22;2730;51.512;7.504;2023-04-03T05:37:06;-0.20;99.90
5415;DHT22;2730;51.512;7.504;2023-04-03T05:39:33;-0.20;99.90
5415;DHT22;2730;51.512;7.504;2023-04-03T05:42:00;-0.20;99.90
5415;DHT22;2730;51.512;7.504;2023-04-03T05:44:27;-0.20;99.90
5415;DHT22;2730;51.512;7.504;2023-04-03T05:46:54;-0.10;99.90
5415;DHT22;2730;51.512;7.504;2023-04-03T05:49:22;-0.20;99.90
5415;DHT22;2730;51.512;7.504;2023-04-03T05:51:48;-0.10;99.90
5415;DHT22;2730;51.512;7.504;2023-04-03T05:54:19;-0.10;99.90
5415;DHT22;2730;51.512;7.504;2023-04-03T05:56:48;0.00;99.90
5415;DHT22;2730;51.512;7.504;2023-04-03T05:59:16;0.10;99.90
5415;DHT22;2730;51.512;7.504;2023-04-03T06:01:43;0.20;99.90
5415;DHT22;2730;51.512;7.504;2023-04-03T06:04:09;0.20;99.90
5415;DHT22;2730;51.512;7.504;2023-04-03T06:06:46;0.30;99.90
5415;DHT22;2730;51.512;7.504;2023-04-03T06:09:13;0.30;99.90
5415;DHT22;2730;51.512;7.504;2023-04-03T06:11:40;0.40;99.90
5415;DHT22;2730;51.512;7.504;2023-04-03T06:14:08;0.70;99.90
5415;DHT22;2730;51.512;7.504;2023-04-03T06:16:35;1.30;99.90
5415;DHT22;2730;51.512;7.504;2023-04-03T06:19:02;1.60;99.90
5415;DHT22;2730;51.512;7.504;2023-04-03T06:21:30;1.70;99.90
5415;DHT22;2730;51.512;7.504;2023-04-03T06:23:58;1.40;99.90
5415;DHT22;2730;51.512;7.504;2023-04-03T06:26:24;1.30;99.90
5415;DHT22;2730;51.512;7.504;2023-04-03T06:28:52;1.20;99.90
5415;DHT22;2730;51.512;7.504;2023-04-03T06:31:19;1.10;99.90
5415;DHT22;2730;51.512;7.504;2023-04-03T06:33:46;1.00;99.90
5415;DHT22;2730;51.512;7.504;2023-04-03T06:36:13;1.10;99.90
5415;DHT22;2730;51.512;7.504;2023-04-03T06:38:40;1.10;99.90
5415;DHT22;2730;51.512;7.504;2023-04-03T06:41:09;1.20;99.90
5415;DHT22;2730;51.512;7.504;2023-04-03T06:43:35;1.10;99.90
5415;DHT22;2730;51.512;7.504;2023-04-03T06:46:02;1.30;99.90
5415;DHT22;2730;51.512;7.504;2023-04-03T06:48:29;2.20;99.90
5415;DHT22;2730;51.512;7.504;2023-04-03T06:50:56;3.30;99.90
5415;DHT22;2730;51.512;7.504;2023-04-03T06:53:23;3.80;99.90
5415;DHT22;2730;51.512;7.504;2023-04-03T06:55:50;3.90;99.90
5415;DHT22;2730;51.512;7.504;2023-04-03T06:58:18;3.70;99.90
5415;DHT22;2730;51.512;7.504;2023-04-03T07:00:45;3.60;99.90
5415;DHT22;2730;51.512;7.504;2023-04-03T07:03:12;3.60;99.90
5415;DHT22;2730;51.512;7.504;2023-04-03T07:05:39;3.60;99.90
5415;DHT22;2730;51.512;7.504;2023-04-03T07:08:08;3.70;99.90
5415;DHT22;2730;51.512;7.504;2023-04-03T07:10:34;4.00;99.90
5415;DHT22;2730;51.512;7.504;2023-04-03T07:13:01;4.20;99.90
5415;DHT22;2730;51.512;7.504;2023-04-03T07:15:30;4.10;99.90
5415;DHT22;2730;51.512;7.504;2023-04-03T07:17:56;4.20;99.90
5415;DHT22;2730;51.512;7.504;2023-04-03T07:20:23;4.30;99.90
5415;DHT22;2730;51.512;7.504;2023-04-03T07:22:50;4.70;99.90
5415;DHT22;2730;51.512;7.504;2023-04-03T07:25:17;5.10;99.90
5415;DHT22;2730;51.512;7.504;2023-04-03T07:27:44;4.60;99.90
5415;DHT22;2730;51.512;7.504;2023-04-03T07:30:11;4.80;99.90
5415;DHT22;2730;51.512;7.504;2023-04-03T07:32:40;5.30;99.90
5415;DHT22;2730;51.512;7.504;2023-04-03T07:35:08;6.40;99.90
5415;DHT22;2730;51.512;7.504;2023-04-03T07:37:34;7.40;99.90
5415;DHT22;2730;51.512;7.504;2023-04-03T07:40:02;8.00;98.40
5415;DHT22;2730;51.512;7.504;2023-04-03T07:42:29;7.80;97.60
5415;DHT22;2730;51.512;7.504;2023-04-03T07:44:57;7.60;98.60
5415;DHT22;2730;51.512;7.504;2023-04-03T07:47:23;7.90;98.00
5415;DHT22;2730;51.512;7.504;2023-04-03T07:49:52;8.70;98.20
5415;DHT22;2730;51.512;7.504;2023-04-03T07:52:18;9.10;95.70
5415;DHT22;2730;51.512;7.504;2023-04-03T07:54:45;9.10;94.70
5415;DHT22;2730;51.512;7.504;2023-04-03T07:57:12;9.40;93.50
5415;DHT22;2730;51.512;7.504;2023-04-03T07:59:39;8.90;94.70
5415;DHT22;2730;51.512;7.504;2023-04-03T08:02:08;8.70;94.60
5415;DHT22;2730;51.512;7.504;2023-04-03T08:04:35;9.00;94.90
5415;DHT22;2730;51.512;7.504;2023-04-03T08:07:04;9.40;94.10
5415;DHT22;2730;51.512;7.504;2023-04-03T08:09:31;9.80;93.80
5415;DHT22;2730;51.512;7.504;2023-04-03T08:11:58;10.50;91.00
5415;DHT22;2730;51.512;7.504;2023-04-03T08:14:24;10.90;91.00
5415;DHT22;2730;51.512;7.504;2023-04-03T08:16:52;10.50;90.40
5415;DHT22;2730;51.512;7.504;2023-04-03T08:19:18;10.80;88.80
5415;DHT22;2730;51.512;7.504;2023-04-03T08:21:45;10.20;87.70
5415;DHT22;2730;51.512;7.504;2023-04-03T08:24:13;9.80;89.80
5415;DHT22;2730;51.512;7.504;2023-04-03T08:26:40;9.70;90.60
5415;DHT22;2730;51.512;7.504;2023-04-03T08:29:07;10.10;87.80
5415;DHT22;2730;51.512;7.504;2023-04-03T08:31:34;10.20;88.30
5415;DHT22;2730;51.512;7.504;2023-04-03T08:34:00;10.60;88.50
5415;DHT22;2730;51.512;7.504;2023-04-03T08:36:28;9.60;88.60
5415;DHT22;2730;51.512;7.504;2023-04-03T08:38:56;9.60;89.90
5415;DHT22;2730;51.512;7.504;2023-04-03T08:41:31;9.50;90.00
5415;DHT22;2730;51.512;7.504;2023-04-03T08:44:02;10.10;87.40
5415;DHT22;2730;51.512;7.504;2023-04-03T08:46:38;10.10;85.90
5415;DHT22;2730;51.512;7.504;2023-04-03T08:49:11;9.30;89.20
5415;DHT22;2730;51.512;7.504;2023-04-03T08:51:47;9.30;89.90
5415;DHT22;2730;51.512;7.504;2023-04-03T08:54:25;9.70;87.90
5415;DHT22;2730;51.512;7.504;2023-04-03T08:56:56;10.20;87.00
5415;DHT22;2730;51.512;7.504;2023-04-03T08:59:28;10.80;82.30
5415;DHT22;2730;51.512;7.504;2023-04-03T09:01:57;11.00;83.30
5415;DHT22;2730;51.512;7.504;2023-04-03T09:04:26;11.70;81.10
5415;DHT22;2730;51.512;7.504;2023-04-03T09:06:56;11.50;77.00
5415;DHT22;2730;51.512;7.504;2023-04-03T09:09:31;11.20;79.30
5415;DHT22;2730;51.512;7.504;2023-04-03T09:12:06;11.50;76.80
5415;DHT22;2730;51.512;7.504;2023-04-03T09:14:42;12.00;75.90
5415;DHT22;2730;51.512;7.504;2023-04-03T09:17:18;11.70;72.20
5415;DHT22;2730;51.512;7.504;2023-04-03T09:19:51;11.50;71.60
5415;DHT22;2730;51.512;7.504;2023-04-03T09:22:24;11.50;73.70
5415;DHT22;2730;51.512;7.504;2023-04-03T09:24:57;12.00;76.70
5415;DHT22;2730;51.512;7.504;2023-04-03T09:27:26;12.00;68.70
5415;DHT22;2730;51.512;7.504;2023-04-03T09:29:54;11.30;71.30
5415;DHT22;2730;51.512;7.504;2023-04-03T09:32:27;11.50;69.10
5415;DHT22;2730;51.512;7.504;2023-04-03T09:34:57;11.40;68.70
5415;DHT22;2730;51.512;7.504;2023-04-03T09:37:37;10.90;69.80
5415;DHT22;2730;51.512;7.504;2023-04-03T09:40:05;10.70;70.40
5415;DHT22;2730;51.512;7.504;2023-04-03T09:42:39;11.30;70.40
5415;DHT22;2730;51.512;7.504;2023-04-03T09:45:22;11.00;70.10
5415;DHT22;2730;51.512;7.504;2023-04-03T09:48:05;10.90;66.60
5415;DHT22;2730;51.512;7.504;2023-04-03T09:50:32;11.00;66.70
5415;DHT22;2730;51.512;7.504;2023-04-03T09:53:05;11.30;67.70
5415;DHT22;2730;51.512;7.504;2023-04-03T09:55:32;11.40;68.70
5415;DHT22;2730;51.512;7.504;2023-04-03T09:58:01;12.00;67.10
5415;DHT22;2730;51.512;7.504;2023-04-03T10:00:33;12.20;62.80
5415;DHT22;2730;51.512;7.504;2023-04-03T10:03:00;11.80;60.60
5415;DHT22;2730;51.512;7.504;2023-04-03T10:05:31;11.50;60.40
5415;DHT22;2730;51.512;7.504;2023-04-03T10:08:19;10.70;63.60
5415;DHT22;2730;51.512;7.504;2023-04-03T10:10:48;10.40;63.30
5415;DHT22;2730;51.512;7.504;2023-04-03T10:13:18;10.20;64.90
5415;DHT22;2730;51.512;7.504;2023-04-03T10:15:50;10.30;63.40
5415;DHT22;2730;51.512;7.504;2023-04-03T10:18:31;10.10;66.40
5415;DHT22;2730;51.512;7.504;2023-04-03T10:21:03;10.40;60.40
5415;DHT22;2730;51.512;7.504;2023-04-03T10:23:37;10.80;62.60
5415;DHT22;2730;51.512;7.504;2023-04-03T10:26:13;11.20;63.10
5415;DHT22;2730;51.512;7.504;2023-04-03T10:28:48;11.20;60.80
5415;DHT22;2730;51.512;7.504;2023-04-03T10:31:21;11.10;61.70
5415;DHT22;2730;51.512;7.504;2023-04-03T10:33:58;11.00;59.00
5415;DHT22;2730;51.512;7.504;2023-04-03T10:36:34;10.40;59.40
5415;DHT22;2730;51.512;7.504;2023-04-03T10:39:11;10.40;59.80
5415;DHT22;2730;51.512;7.504;2023-04-03T10:41:50;11.00;58.40
5415;DHT22;2730;51.512;7.504;2023-04-03T10:44:29;10.70;58.90
5415;DHT22;2730;51.512;7.504;2023-04-03T10:47:03;10.00;59.10
5415;DHT22;2730;51.512;7.504;2023-04-03T10:49:43;9.90;60.50
5415;DHT22;2730;51.512;7.504;2023-04-03T10:52:20;10.00;61.30
5415;DHT22;2730;51.512;7.504;2023-04-03T10:54:54;9.80;62.90
5415;DHT22;2730;51.512;7.504;2023-04-03T10:57:24;9.50;61.60
5415;DHT22;2730;51.512;7.504;2023-04-03T10:59:56;9.70;60.20
5415;DHT22;2730;51.512;7.504;2023-04-03T11:02:27;10.30;57.30
5415;DHT22;2730;51.512;7.504;2023-04-03T11:04:59;10.00;58.80
5415;DHT22;2730;51.512;7.504;2023-04-03T11:07:29;9.50;58.50
5415;DHT22;2730;51.512;7.504;2023-04-03T11:10:02;8.80;58.30
5415;DHT22;2730;51.512;7.504;2023-04-03T11:12:35;8.20;62.00
5415;DHT22;2730;51.512;7.504;2023-04-03T11:15:05;8.10;63.00
5415;DHT22;2730;51.512;7.504;2023-04-03T11:17:41;7.90;63.10
5415;DHT22;2730;51.512;7.504;2023-04-03T11:20:16;7.90;64.40
5415;DHT22;2730;51.512;7.504;2023-04-03T11:22:48;7.80;63.50
5415;DHT22;2730;51.512;7.504;2023-04-03T11:25:20;7.70;65.10
5415;DHT22;2730;51.512;7.504;2023-04-03T11:27:51;7.60;64.70
5415;DHT22;2730;51.512;7.504;2023-04-03T11:30:23;7.70;62.20
5415;DHT22;2730;51.512;7.504;2023-04-03T11:33:21;7.70;63.60
5415;DHT22;2730;51.512;7.504;2023-04-03T11:35:53;7.70;64.00
5415;DHT22;2730;51.512;7.504;2023-04-03T11:38:25;7.60;64.40
5415;DHT22;2730;51.512;7.504;2023-04-03T11:40:55;7.60;66.00
5415;DHT22;2730;51.512;7.504;2023-04-03T11:43:25;7.70;64.20
5415;DHT22;2730;51.512;7.504;2023-04-03T11:45:58;7.60;64.80
5415;DHT22;2730;51.512;7.504;2023-04-03T11:48:48;7.40;65.20
5415;DHT22;2730;51.512;7.504;2023-04-03T11:51:42;7.70;64.90
5415;DHT22;2730;51.512;7.504;2023-04-03T11:54:45;7.60;63.00
5415;DHT22;2730;51.512;7.504;2023-04-03T11:57:46;7.60;62.00
5415;DHT22;2730;51.512;7.504;2023-04-03T12:06:50;7.60;63.00
5415;DHT22;2730;51.512;7.504;2023-04-03T12:09:33;7.40;62.80
5415;DHT22;2730;51.512;7.504;2023-04-03T12:12:22;7.50;63.20
5415;DHT22;2730;51.512;7.504;2023-04-03T12:14:51;7.70;61.80
5415;DHT22;2730;51.512;7.504;2023-04-03T12:17:22;7.60;62.50
5415;DHT22;2730;51.512;7.504;2023-04-03T12:19:52;7.70;65.30
5415;DHT22;2730;51.512;7.504;2023-04-03T12:22:20;7.80;64.10
5415;DHT22;2730;51.512;7.504;2023-04-03T12:24:49;7.70;65.00
5415;DHT22;2730;51.512;7.504;2023-04-03T12:27:29;7.60;63.40
5415;DHT22;2730;51.512;7.504;2023-04-03T12:30:13;7.60;64.40
5415;DHT22;2730;51.512;7.504;2023-04-03T12:32:51;7.60;65.00
5415;DHT22;2730;51.512;7.504;2023-04-03T12:35:27;7.80;62.50
5415;DHT22;2730;51.512;7.504;2023-04-03T12:38:20;7.80;65.00
5415;DHT22;2730;51.512;7.504;2023-04-03T12:40:55;7.80;66.60
5415;DHT22;2730;51.512;7.504;2023-04-03T12:43:43;7.90;63.90
5415;DHT22;2730;51.512;7.504;2023-04-03T12:46:17;7.80;64.30
5415;DHT22;2730;51.512;7.504;2023-04-03T12:48:49;7.80;65.40
5415;DHT22;2730;51.512;7.504;2023-04-03T12:51:19;7.80;63.60
5415;DHT22;2730;51.512;7.504;2023-04-03T12:53:50;7.70;63.70
5415;DHT22;2730;51.512;7.504;2023-04-03T12:56:21;7.60;62.80
5415;DHT22;2730;51.512;7.504;2023-04-03T12:58:48;7.70;64.70
5415;DHT22;2730;51.512;7.504;2023-04-03T13:01:17;7.90;66.00
5415;DHT22;2730;51.512;7.504;2023-04-03T13:03:47;8.00;64.60
5415;DHT22;2730;51.512;7.504;2023-04-03T13:06:17;8.00;65.20
5415;DHT22;2730;51.512;7.504;2023-04-03T13:08:55;7.90;65.90
5415;DHT22;2730;51.512;7.504;2023-04-03T13:11:25;7.90;66.70
5415;DHT22;2730;51.512;7.504;2023-04-03T13:13:56;7.90;66.10
5415;DHT22;2730;51.512;7.504;2023-04-03T13:16:23;7.80;66.80
5415;DHT22;2730;51.512;7.504;2023-04-03T13:18:51;8.00;65.90
5415;DHT22;2730;51.512;7.504;2023-04-03T13:21:20;8.00;68.20
5415;DHT22;2730;51.512;7.504;2023-04-03T13:23:50;7.90;66.10
5415;DHT22;2730;51.512;7.504;2023-04-03T13:26:22;7.80;66.60
5415;DHT22;2730;51.512;7.504;2023-04-03T13:28:50;7.80;66.90
5415;DHT22;2730;51.512;7.504;2023-04-03T13:31:23;7.90;67.60
5415;DHT22;2730;51.512;7.504;2023-04-03T13:33:57;7.80;67.20
5415;DHT22;2730;51.512;7.504;2023-04-03T13:36:28;7.70;68.20
5415;DHT22;2730;51.512;7.504;2023-04-03T13:39:02;7.70;68.30
5415;DHT22;2730;51.512;7.504;2023-04-03T13:41:33;7.70;66.30
5415;DHT22;2730;51.512;7.504;2023-04-03T13:44:28;7.70;67.00
5415;DHT22;2730;51.512;7.504;2023-04-03T13:46:56;7.80;69.10
5415;DHT22;2730;51.512;7.504;2023-04-03T13:49:30;7.90;68.60
5415;DHT22;2730;51.512;7.504;2023-04-03T13:51:58;7.80;66.40
5415;DHT22;2730;51.512;7.504;2023-04-03T13:54:29;7.80;68.60
5415;DHT22;2730;51.512;7.504;2023-04-03T13:56:58;8.00;67.00
5415;DHT22;2730;51.512;7.504;2023-04-03T13:59:28;8.00;66.40
5415;DHT22;2730;51.512;7.504;2023-04-03T14:02:11;8.10;67.40
5415;DHT22;2730;51.512;7.504;2023-04-03T14:04:47;8.10;65.60
5415;DHT22;2730;51.512;7.504;2023-04-03T14:07:16;8.10;66.30
5415;DHT22;2730;51.512;7.504;2023-04-03T14:09:45;8.00;65.60
5415;DHT22;2730;51.512;7.504;2023-04-03T14:12:15;7.90;66.60
5415;DHT22;2730;51.512;7.504;2023-04-03T14:14:44;7.70;65.70
5415;DHT22;2730;51.512;7.504;2023-04-03T14:17:14;7.60;66.90
5415;DHT22;2730;51.512;7.504;2023-04-03T14:19:42;7.60;67.70
5415;DHT22;2730;51.512;7.504;2023-04-03T14:22:15;7.70;68.10
5415;DHT22;2730;51.512;7.504;2023-04-03T14:24:42;7.80;67.10
5415;DHT22;2730;51.512;7.504;2023-04-03T14:27:17;7.80;67.90
5415;DHT22;2730;51.512;7.504;2023-04-03T14:29:45;7.90;71.00
5415;DHT22;2730;51.512;7.504;2023-04-03T14:32:13;8.00;70.70
5415;DHT22;2730;51.512;7.504;2023-04-03T14:34:41;8.10;69.20
5415;DHT22;2730;51.512;7.504;2023-04-03T14:37:12;7.80;69.00
5415;DHT22;2730;51.512;7.504;2023-04-03T14:39:38;7.80;69.60
5415;DHT22;2730;51.512;7.504;2023-04-03T14:42:06;7.70;69.30
5415;DHT22;2730;51.512;7.504;2023-04-03T14:44:37;7.80;69.30
5415;DHT22;2730;51.512;7.504;2023-04-03T14:47:04;7.80;67.40
5415;DHT22;2730;51.512;7.504;2023-04-03T14:49:31;7.90;67.70
5415;DHT22;2730;51.512;7.504;2023-04-03T14:51:58;8.00;66.80
5415;DHT22;2730;51.512;7.504;2023-04-03T14:54:26;8.10;68.20
5415;DHT22;2730;51.512;7.504;2023-04-03T14:56:55;8.00;66.20
5415;DHT22;2730;51.512;7.504;2023-04-03T14:59:22;7.80;64.10
5415;DHT22;2730;51.512;7.504;2023-04-03T15:01:50;7.70;64.40
5415;DHT22;2730;51.512;7.504;2023-04-03T15:04:19;7.70;63.50
5415;DHT22;2730;51.512;7.504;2023-04-03T15:06:47;7.60;64.60
5415;DHT22;2730;51.512;7.504;2023-04-03T15:09:20;7.60;65.60
5415;DHT22;2730;51.512;7.504;2023-04-03T15:11:47;7.70;67.30
5415;DHT22;2730;51.512;7.504;2023-04-03T15:14:14;7.80;68.60
5415;DHT22;2730;51.512;7.504;2023-04-03T15:16:41;7.80;67.60
5415;DHT22;2730;51.512;7.504;2023-04-03T15:19:09;7.80;68.20
5415;DHT22;2730;51.512;7.504;2023-04-03T15:21:36;7.70;68.90
5415;DHT22;2730;51.512;7.504;2023-04-03T15:24:03;7.70;70.00
5415;DHT22;2730;51.512;7.504;2023-04-03T15:26:30;7.60;69.60
5415;DHT22;2730;51.512;7.504;2023-04-03T15:28:58;7.60;68.90
5415;DHT22;2730;51.512;7.504;2023-04-03T15:31:24;7.60;69.80
5415;DHT22;2730;51.512;7.504;2023-04-03T15:33:51;7.70;69.60
5415;DHT22;2730;51.512;7.504;2023-04-03T15:36:19;7.70;68.50
5415;DHT22;2730;51.512;7.504;2023-04-03T15:38:46;7.60;68.20
5415;DHT22;2730;51.512;7.504;2023-04-03T15:41:13;7.60;69.40
5415;DHT22;2730;51.512;7.504;2023-04-03T15:43:40;7.70;68.90
5415;DHT22;2730;51.512;7.504;2023-04-03T15:46:07;7.70;67.30
5415;DHT22;2730;51.512;7.504;2023-04-03T15:48:34;7.60;67.70
5415;DHT22;2730;51.512;7.504;2023-04-03T15:51:00;7.60;67.20
5415;DHT22;2730;51.512;7.504;2023-04-03T15:53:28;7.50;68.40
5415;DHT22;2730;51.512;7.504;2023-04-03T15:55:55;7.50;68.00
5415;DHT22;2730;51.512;7.504;2023-04-03T15:58:22;7.50;68.00
5415;DHT22;2730;51.512;7.504;2023-04-03T16:00:49;7.50;69.40
5415;DHT22;2730;51.512;7.504;2023-04-03T16:03:17;7.50;66.90
5415;DHT22;2730;51.512;7.504;2023-04-03T16:05:44;7.50;65.50
5415;DHT22;2730;51.512;7.504;2023-04-03T16:08:12;7.40;67.20
5415;DHT22;2730;51.512;7.504;2023-04-03T16:10:40;7.40;67.80
5415;DHT22;2730;51.512;7.504;2023-04-03T16:13:07;7.30;68.90
5415;DHT22;2730;51.512;7.504;2023-04-03T16:15:34;7.30;70.00
5415;DHT22;2730;51.512;7.504;2023-04-03T16:18:01;7.30;70.00
5415;DHT22;2730;51.512;7.504;2023-04-03T16:20:28;7.40;71.00
5415;DHT22;2730;51.512;7.504;2023-04-03T16:22:56;7.30;69.90
5415;DHT22;2730;51.512;7.504;2023-04-03T16:25:24;7.30;70.80
5415;DHT22;2730;51.512;7.504;2023-04-03T16:27:53;7.20;70.60
5415;DHT22;2730;51.512;7.504;2023-04-03T16:30:20;7.20;68.80
5415;DHT22;2730;51.512;7.504;2023-04-03T16:32:46;7.20;69.40
5415;DHT22;2730;51.512;7.504;2023-04-03T16:35:13;7.10;68.90
5415;DHT22;2730;51.512;7.504;2023-04-03T16:37:40;7.00;68.10
5415;DHT22;2730;51.512;7.504;2023-04-03T16:40:08;7.00;69.30